createdAt,value
2023-03-10T00:02:40.579Z,1.27
2023-03-10T00:05:40.630Z,1.23
2023-03-10T00:08:41.631Z,1.19
2023-03-10T00:11:43.907Z,1.19
2023-03-10T00:14:43.591Z,1.20
2023-03-10T00:17:43.621Z,1.22
2023-03-10T00:20:45.608Z,1.23
2023-03-10T00:23:43.681Z,1.16
2023-03-10T00:26:53.575Z,1.09
2023-03-10T00:29:57.654Z,1.05
2023-03-10T00:33:02.562Z,1.02
2023-03-10T00:36:02.653Z,0.99
2023-03-10T00:39:04.231Z,0.94
2023-03-10T00:42:08.605Z,0.91
2023-03-10T00:45:08.672Z,0.91
2023-03-10T00:48:08.619Z,0.90
2023-03-10T00:51:11.602Z,0.92
2023-03-10T00:54:14.690Z,0.95
2023-03-10T00:57:15.641Z,0.97
2023-03-10T01:00:16.631Z,0.94
2023-03-10T01:03:16.626Z,0.89
2023-03-10T01:06:18.627Z,0.84
2023-03-10T01:09:24.141Z,0.81
2023-03-10T01:12:25.681Z,0.75
2023-03-10T01:15:26.638Z,0.69
2023-03-10T01:18:26.715Z,0.63
2023-03-10T01:21:34.666Z,0.59
2023-03-10T01:24:37.677Z,0.55
2023-03-10T01:27:37.669Z,0.51
2023-03-10T01:30:38.654Z,0.49
2023-03-10T01:33:39.663Z,0.48
2023-03-10T01:36:32.833Z,0.45
2023-03-10T01:39:33.765Z,0.40
2023-03-10T01:42:37.133Z,0.32
2023-03-10T01:45:44.923Z,0.25
2023-03-10T01:48:46.735Z,0.17
2023-03-10T01:51:48.729Z,0.14
2023-03-10T01:55:04.761Z,0.09
2023-03-10T01:58:08.935Z,0.04
2023-03-10T02:01:13.778Z,0.03
2023-03-10T02:04:28.749Z,0.02
2023-03-10T02:07:35.779Z,0.03
2023-03-10T02:10:36.767Z,0.05
2023-03-10T02:13:37.767Z,0.01
2023-03-10T02:16:38.869Z,-0.02
2023-03-10T02:20:04.779Z,-0.05
2023-03-10T02:23:05.789Z,-0.03
2023-03-10T02:26:14.367Z,-0.06
2023-03-10T02:29:14.872Z,-0.10
2023-03-10T02:32:15.969Z,-0.13
2023-03-10T02:35:16.779Z,-0.19
2023-03-10T02:38:20.783Z,-0.21
2023-03-10T02:41:29.769Z,-0.24
2023-03-10T02:44:34.765Z,-0.26
2023-03-10T02:47:36.785Z,-0.28
2023-03-10T02:50:38.840Z,-0.33
2023-03-10T02:53:42.882Z,-0.35
2023-03-10T02:56:45.241Z,-0.37
2023-03-10T02:59:51.094Z,-0.33
2023-03-10T03:02:51.834Z,-0.35
2023-03-10T03:05:53.840Z,-0.38
2023-03-10T03:08:56.939Z,-0.36
2023-03-10T03:11:56.833Z,-0.35
2023-03-10T03:15:02.211Z,-0.35
2023-03-10T03:18:05.861Z,-0.35
2023-03-10T03:21:07.877Z,-0.41
2023-03-10T03:24:11.875Z,-0.42
2023-03-10T03:27:12.865Z,-0.40
2023-03-10T03:30:14.890Z,-0.40
2023-03-10T03:33:14.874Z,-0.40
2023-03-10T03:36:16.874Z,-0.38
2023-03-10T03:39:16.926Z,-0.40
2023-03-10T03:42:20.945Z,-0.39
2023-03-10T03:45:24.447Z,-0.38
2023-03-10T03:48:25.925Z,-0.38
2023-03-10T03:51:28.130Z,-0.40
2023-03-10T03:54:29.994Z,-0.42
2023-03-10T03:57:31.912Z,-0.46
2023-03-10T04:00:33.945Z,-0.48
2023-03-10T04:03:35.022Z,-0.49
2023-03-10T04:06:40.907Z,-0.49
2023-03-10T04:09:42.952Z,-0.47
2023-03-10T04:12:46.010Z,-0.45
2023-03-10T04:15:50.065Z,-0.42
2023-03-10T04:18:50.969Z,-0.40
2023-03-10T04:21:53.187Z,-0.44
2023-03-10T04:24:53.926Z,-0.47
2023-03-10T04:27:57.429Z,-0.49
2023-03-10T04:30:59.996Z,-0.51
2023-03-10T04:34:04.960Z,-0.49
2023-03-10T04:37:06.981Z,-0.51
2023-03-10T04:40:07.005Z,-0.52
2023-03-10T04:43:07.036Z,-0.49
2023-03-10T04:46:07.117Z,-0.45
2023-03-10T04:49:08.049Z,-0.41
2023-03-10T04:52:09.215Z,-0.39
2023-03-10T04:55:08.995Z,-0.38
2023-03-10T04:58:13.037Z,-0.35
2023-03-10T05:01:24.853Z,-0.32
2023-03-10T05:04:30.115Z,-0.30
2023-03-10T05:07:30.049Z,-0.31
2023-03-10T05:10:32.616Z,-0.29
2023-03-10T05:13:34.115Z,-0.28
2023-03-10T05:16:36.567Z,-0.31
2023-03-10T05:19:38.023Z,-0.33
2023-03-10T05:22:43.070Z,-0.40
2023-03-10T05:25:45.062Z,-0.42
2023-03-10T05:28:51.091Z,-0.45
2023-03-10T05:31:58.110Z,-0.44
2023-03-10T05:35:06.092Z,-0.44
2023-03-10T05:38:08.189Z,-0.42
2023-03-10T05:41:12.853Z,-0.37
2023-03-10T05:44:16.095Z,-0.28
2023-03-10T05:47:25.376Z,-0.22
2023-03-10T05:50:27.140Z,-0.17
2023-03-10T05:53:27.134Z,-0.11
2023-03-10T05:56:33.136Z,-0.01
2023-03-10T05:59:33.134Z,0.11
2023-03-10T06:02:34.110Z,0.24
2023-03-10T06:05:41.509Z,0.39
2023-03-10T06:08:42.214Z,0.58
2023-03-10T06:11:49.194Z,0.75
2023-03-10T06:14:57.485Z,0.95
2023-03-10T06:17:57.428Z,1.41
2023-03-10T06:20:59.278Z,1.93
2023-03-10T06:24:06.568Z,2.39
2023-03-10T06:27:10.306Z,3.07
2023-03-10T06:30:14.176Z,3.96
2023-03-10T06:33:14.197Z,4.21
2023-03-10T06:36:16.369Z,4.00
2023-03-10T06:39:20.269Z,3.76
2023-03-10T06:42:23.500Z,3.49
2023-03-10T06:45:29.336Z,3.16
2023-03-10T06:48:31.211Z,3.10
2023-03-10T06:51:32.264Z,3.16
2023-03-10T06:54:33.256Z,3.26
2023-03-10T06:57:33.247Z,3.26
2023-03-10T07:00:26.353Z,3.12
2023-03-10T07:03:29.332Z,2.97
2023-03-10T07:06:31.498Z,2.83
2023-03-10T07:09:45.629Z,2.71
2023-03-10T07:12:46.243Z,2.74
2023-03-10T07:15:52.302Z,2.86
2023-03-10T07:18:56.271Z,3.02
2023-03-10T07:22:06.270Z,3.51
2023-03-10T07:25:08.287Z,4.27
2023-03-10T07:28:08.347Z,4.65
2023-03-10T07:31:11.495Z,4.56
2023-03-10T07:34:13.307Z,4.31
2023-03-10T07:37:14.297Z,3.97
2023-03-10T07:40:16.536Z,3.63
2023-03-10T07:43:23.318Z,3.40
2023-03-10T07:46:28.590Z,3.15
2023-03-10T07:49:29.345Z,2.92
2023-03-10T07:52:32.338Z,2.76
2023-03-10T07:55:37.777Z,2.56
2023-03-10T07:58:39.675Z,2.45
2023-03-10T08:01:46.625Z,2.43
2023-03-10T08:04:48.502Z,2.34
2023-03-10T08:07:50.324Z,2.27
2023-03-10T08:10:52.333Z,2.28
2023-03-10T08:13:54.441Z,2.33
2023-03-10T08:16:55.388Z,2.31
2023-03-10T08:19:57.341Z,2.29
2023-03-10T08:22:59.407Z,2.32
2023-03-10T08:26:02.468Z,2.34
2023-03-10T08:29:02.365Z,2.39
2023-03-10T08:32:06.520Z,2.45
2023-03-10T08:35:10.583Z,2.51
2023-03-10T08:38:16.570Z,2.55
2023-03-10T08:41:31.689Z,2.52
2023-03-10T08:44:35.770Z,2.51
2023-03-10T08:47:35.453Z,2.50
2023-03-10T08:50:36.513Z,2.52
2023-03-10T08:53:36.953Z,2.77
2023-03-10T08:56:43.403Z,3.03
2023-03-10T08:59:47.522Z,3.26
2023-03-10T09:03:08.012Z,3.41
2023-03-10T09:06:08.431Z,3.49
2023-03-10T09:09:12.769Z,3.48
2023-03-10T09:12:16.509Z,3.47
2023-03-10T09:15:24.823Z,3.41
2023-03-10T09:18:27.536Z,3.37
2023-03-10T09:21:32.720Z,3.40
2023-03-10T09:24:47.255Z,3.47
2023-03-10T09:27:56.029Z,3.56
2023-03-10T09:31:00.473Z,3.68
2023-03-10T09:34:03.535Z,3.83
2023-03-10T09:37:08.129Z,4.01
2023-03-10T09:40:08.495Z,4.21
2023-03-10T09:43:19.515Z,4.41
2023-03-10T09:46:47.669Z,4.58
2023-03-10T09:50:16.493Z,4.68
2023-03-10T09:53:39.750Z,4.74
2023-03-10T09:56:43.497Z,4.70
2023-03-10T09:59:58.892Z,4.56
2023-03-10T10:03:09.233Z,4.46
2023-03-10T10:06:12.966Z,4.39
2023-03-10T10:09:18.568Z,4.48
2023-03-10T10:12:33.378Z,4.62
2023-03-10T10:15:38.654Z,4.82
2023-03-10T10:18:54.103Z,4.82
2023-03-10T10:22:34.684Z,4.82
2023-03-10T10:25:36.596Z,4.95
2023-03-10T10:28:52.569Z,4.92
2023-03-10T10:31:52.945Z,4.64
2023-03-10T10:34:57.304Z,4.25
2023-03-10T10:37:57.663Z,4.10
2023-03-10T10:41:20.606Z,4.18
2023-03-10T10:44:26.198Z,4.27
2023-03-10T10:47:40.693Z,4.26
2023-03-10T10:50:47.559Z,4.11
2023-03-10T10:54:09.556Z,4.06
2023-03-10T10:57:15.329Z,4.02
2023-03-10T11:00:43.637Z,3.98
2023-03-10T11:03:46.621Z,4.06
2023-03-10T11:06:47.630Z,4.10
2023-03-10T11:10:01.776Z,3.97
2023-03-10T11:13:12.698Z,3.95
2023-03-10T11:16:27.684Z,4.03
2023-03-10T11:19:55.742Z,4.18
2023-03-10T11:23:05.083Z,4.32
2023-03-10T11:26:21.682Z,4.46
2023-03-10T11:29:30.197Z,4.57
2023-03-10T11:32:52.339Z,4.48
2023-03-10T11:36:55.338Z,4.44
2023-03-10T11:40:22.209Z,4.46
2023-03-10T11:43:32.138Z,4.51
2023-03-10T11:46:39.777Z,4.65
2023-03-10T11:49:44.716Z,4.82
2023-03-10T11:52:46.760Z,4.98
2023-03-10T11:55:46.933Z,5.09
2023-03-10T11:59:05.832Z,5.08
2023-03-10T12:02:53.847Z,5.00
2023-03-10T12:06:12.758Z,5.00
2023-03-10T12:09:13.794Z,5.09
2023-03-10T12:12:17.815Z,5.13
2023-03-10T12:15:37.160Z,5.04
2023-03-10T12:18:42.036Z,4.90
2023-03-10T12:21:46.057Z,4.84
2023-03-10T12:24:58.812Z,4.82
2023-03-10T12:28:29.772Z,4.84
2023-03-10T12:32:00.459Z,4.82
2023-03-10T12:35:25.836Z,4.80
2023-03-10T12:38:44.898Z,4.83
2023-03-10T12:42:11.876Z,4.84
2023-03-10T12:45:35.821Z,4.91
2023-03-10T12:48:36.888Z,5.19
2023-03-10T12:51:37.818Z,5.44
2023-03-10T12:55:01.895Z,5.64
2023-03-10T12:58:17.055Z,5.83
2023-03-10T13:01:22.286Z,6.01
2023-03-10T13:04:32.802Z,6.15
2023-03-10T13:07:34.961Z,6.72
2023-03-10T13:10:41.908Z,7.62
2023-03-10T13:13:49.870Z,8.00
2023-03-10T13:16:52.545Z,8.19
2023-03-10T13:19:56.427Z,8.26
2023-03-10T13:23:06.945Z,8.25
2023-03-10T13:26:15.991Z,8.26
2023-03-10T13:29:17.955Z,8.18
2023-03-10T13:32:19.925Z,8.13
2023-03-10T13:35:48.961Z,8.27
2023-03-10T13:38:50.307Z,8.32
2023-03-10T13:41:54.915Z,8.31
2023-03-10T13:44:56.932Z,8.14
2023-03-10T13:47:57.918Z,8.08
2023-03-10T13:51:15.931Z,8.00
2023-03-10T13:54:31.092Z,7.85
2023-03-10T13:57:48.997Z,7.60
2023-03-10T14:00:53.091Z,7.44
2023-03-10T14:04:29.421Z,7.37
2023-03-10T14:07:34.580Z,7.32
2023-03-10T14:10:34.946Z,7.35
2023-03-10T14:13:55.977Z,7.38
2023-03-10T14:17:19.984Z,7.27
2023-03-10T14:20:24.072Z,7.25
2023-03-10T14:23:39.460Z,7.19
2023-03-10T14:26:42.994Z,6.98
2023-03-10T14:29:55.626Z,6.82
2023-03-10T14:33:03.961Z,6.66
2023-03-10T14:36:06.054Z,6.58
2023-03-10T14:39:09.492Z,6.46
2023-03-10T14:42:14.945Z,6.45
2023-03-10T14:45:22.352Z,6.43
2023-03-10T14:48:28.599Z,6.35
2023-03-10T14:51:35.924Z,6.26
2023-03-10T14:54:39.452Z,6.15
2023-03-10T14:57:42.205Z,6.04
2023-03-10T15:00:44.605Z,6.01
2023-03-10T15:03:51.028Z,5.97
2023-03-10T15:06:52.241Z,5.87
2023-03-10T15:10:10.690Z,5.74
2023-03-10T15:13:11.846Z,5.67
2023-03-10T15:16:22.259Z,5.58
2023-03-10T15:19:37.967Z,5.52
2023-03-10T15:22:43.113Z,5.46
2023-03-10T15:25:45.795Z,5.37
2023-03-10T15:28:49.251Z,5.26
2023-03-10T15:32:01.108Z,5.14
2023-03-10T15:35:02.229Z,5.01
2023-03-10T15:38:07.140Z,4.93
2023-03-10T15:41:11.938Z,4.86
2023-03-10T15:44:18.778Z,4.78
2023-03-10T15:47:26.484Z,4.68
2023-03-10T15:50:30.898Z,4.60
2023-03-10T15:53:41.119Z,4.53
2023-03-10T15:56:44.461Z,4.47
2023-03-10T15:59:51.403Z,4.40
2023-03-10T16:02:56.695Z,4.35
2023-03-10T16:06:13.705Z,4.27
2023-03-10T16:09:26.434Z,4.19
2023-03-10T16:12:32.289Z,4.12
2023-03-10T16:15:35.372Z,4.06
2023-03-10T16:18:41.573Z,4.02
2023-03-10T16:21:54.791Z,3.99
2023-03-10T16:24:56.800Z,3.97
2023-03-10T16:28:10.756Z,3.97
2023-03-10T16:31:13.602Z,3.97
2023-03-10T16:34:17.189Z,3.99
2023-03-10T16:37:19.178Z,3.98
2023-03-10T16:40:23.371Z,3.98
2023-03-10T16:43:26.875Z,3.99
2023-03-10T16:46:31.240Z,4.00
2023-03-10T16:49:31.254Z,3.99
2023-03-10T16:52:33.337Z,3.98
2023-03-10T16:55:33.318Z,3.97
2023-03-10T16:58:33.321Z,3.96
2023-03-10T17:01:33.283Z,3.94
2023-03-10T17:04:34.238Z,3.94
2023-03-10T17:07:40.454Z,3.94
2023-03-10T17:10:44.346Z,3.91
2023-03-10T17:13:54.431Z,3.89
2023-03-10T17:16:55.404Z,3.87
2023-03-10T17:19:56.246Z,3.86
2023-03-10T17:22:56.794Z,3.85
2023-03-10T17:26:00.385Z,3.83
2023-03-10T17:29:02.279Z,3.81
2023-03-10T17:32:05.378Z,3.79
2023-03-10T17:35:06.266Z,3.78
2023-03-10T17:38:13.303Z,3.75
2023-03-10T17:41:17.309Z,3.74
2023-03-10T17:44:20.303Z,3.74
2023-03-10T17:47:16.414Z,3.73
2023-03-10T17:50:18.515Z,3.72
2023-03-10T17:53:19.617Z,3.72
2023-03-10T17:56:19.372Z,3.71
2023-03-10T17:59:20.382Z,3.72
2023-03-10T18:02:20.538Z,3.72
2023-03-10T18:05:23.326Z,3.74
2023-03-10T18:08:24.459Z,3.75
2023-03-10T18:11:27.352Z,3.75
2023-03-10T18:14:27.349Z,3.76
2023-03-10T18:17:29.355Z,3.77
2023-03-10T18:20:36.359Z,3.78
2023-03-10T18:23:41.341Z,3.77
2023-03-10T18:26:41.458Z,3.78
2023-03-10T18:29:43.313Z,3.77
2023-03-10T18:32:45.421Z,3.77
2023-03-10T18:35:45.389Z,3.76
2023-03-10T18:38:53.752Z,3.74
2023-03-10T18:41:58.242Z,3.72
2023-03-10T18:44:58.397Z,3.70
2023-03-10T18:47:58.416Z,3.67
2023-03-10T18:51:09.427Z,3.64
2023-03-10T18:54:11.415Z,3.62
2023-03-10T18:57:19.456Z,3.61
2023-03-10T19:00:23.681Z,3.55
2023-03-10T19:03:29.854Z,3.51
2023-03-10T19:06:32.473Z,3.48
2023-03-10T19:09:35.790Z,3.44
2023-03-10T19:12:37.481Z,3.38
2023-03-10T19:15:37.481Z,3.31
2023-03-10T19:18:39.440Z,3.27
2023-03-10T19:21:39.446Z,3.23
2023-03-10T19:24:39.654Z,3.20
2023-03-10T19:27:39.529Z,3.15
2023-03-10T19:30:39.579Z,3.12
2023-03-10T19:33:43.800Z,3.09
2023-03-10T19:36:43.492Z,3.04
2023-03-10T19:39:44.471Z,3.01
2023-03-10T19:42:46.546Z,2.99
2023-03-10T19:45:46.488Z,2.98
2023-03-10T19:48:48.653Z,2.97
2023-03-10T19:51:57.640Z,2.96
2023-03-10T19:54:59.305Z,2.96
2023-03-10T19:58:02.502Z,2.94
2023-03-10T20:01:08.653Z,2.93
2023-03-10T20:04:15.520Z,2.93
2023-03-10T20:07:15.564Z,2.93
2023-03-10T20:10:17.588Z,2.94
2023-03-10T20:13:19.584Z,2.94
2023-03-10T20:16:19.746Z,2.96
2023-03-10T20:19:24.362Z,2.96
2023-03-10T20:22:25.750Z,2.95
2023-03-10T20:25:34.281Z,2.93
2023-03-10T20:28:35.544Z,2.90
2023-03-10T20:31:40.041Z,2.90
2023-03-10T20:34:42.560Z,2.90
2023-03-10T20:37:44.580Z,2.89
2023-03-10T20:40:46.800Z,2.89
2023-03-10T20:43:49.636Z,2.88
2023-03-10T20:46:55.606Z,2.87
2023-03-10T20:49:56.592Z,2.86
2023-03-10T20:52:56.596Z,2.85
2023-03-10T20:55:59.626Z,2.86
2023-03-10T20:59:05.613Z,2.84
2023-03-10T21:02:06.612Z,2.82
2023-03-10T21:05:11.861Z,2.79
2023-03-10T21:08:12.619Z,2.78
2023-03-10T21:11:18.617Z,2.79
2023-03-10T21:14:19.684Z,2.77
2023-03-10T21:17:20.731Z,2.76
2023-03-10T21:20:29.619Z,2.75
2023-03-10T21:23:30.648Z,2.74
2023-03-10T21:26:34.695Z,2.73
2023-03-10T21:29:35.668Z,2.74
2023-03-10T21:32:35.674Z,2.74
2023-03-10T21:35:39.998Z,2.75
2023-03-10T21:38:42.665Z,2.78
2023-03-10T21:41:43.723Z,2.79
2023-03-10T21:44:44.707Z,2.81
2023-03-10T21:47:44.682Z,2.83
2023-03-10T21:50:44.728Z,2.86
2023-03-10T21:53:46.747Z,2.88
2023-03-10T21:56:47.733Z,2.91
2023-03-10T21:59:47.693Z,2.95
2023-03-10T22:02:48.740Z,2.97
2023-03-10T22:05:57.810Z,2.99
2023-03-10T22:08:57.843Z,2.99
2023-03-10T22:11:59.718Z,3.00
2023-03-10T22:15:03.739Z,3.00
2023-03-10T22:18:05.781Z,3.00
2023-03-10T22:21:05.817Z,2.99
2023-03-10T22:24:06.736Z,3.00
2023-03-10T22:27:07.710Z,3.02
2023-03-10T22:30:07.760Z,3.03
2023-03-10T22:33:09.803Z,3.05
2023-03-10T22:36:14.740Z,3.06
2023-03-10T22:39:15.796Z,3.09
2023-03-10T22:42:16.933Z,3.12
2023-03-10T22:45:22.883Z,3.15
2023-03-10T22:48:26.811Z,3.18
2023-03-10T22:51:28.808Z,3.22
2023-03-10T22:54:30.786Z,3.27
2023-03-10T22:57:34.023Z,3.34
2023-03-10T23:00:37.806Z,3.40
2023-03-10T23:03:39.819Z,3.46
2023-03-10T23:06:43.823Z,3.52
2023-03-10T23:09:44.994Z,3.58
2023-03-10T23:12:46.807Z,3.63
2023-03-10T23:15:48.849Z,3.70
2023-03-10T23:18:50.221Z,3.74
2023-03-10T23:21:44.953Z,3.78
2023-03-10T23:24:44.842Z,3.81
2023-03-10T23:27:45.862Z,3.82
2023-03-10T23:30:45.863Z,3.82
2023-03-10T23:33:46.898Z,3.82
2023-03-10T23:36:46.881Z,3.81
2023-03-10T23:39:47.879Z,3.80
2023-03-10T23:42:48.926Z,3.79
2023-03-10T23:45:53.917Z,3.77
2023-03-10T23:48:54.856Z,3.76
2023-03-10T23:51:59.898Z,3.76
2023-03-10T23:55:00.917Z,3.75
2023-03-10T23:58:01.966Z,3.75
